createdAt,value
2022-08-08T00:02:43.208Z,18.24
2022-08-08T00:07:45.683Z,18.21
2022-08-08T00:12:56.525Z,18.21
2022-08-08T00:18:05.091Z,18.17
2022-08-08T00:23:17.621Z,18.16
2022-08-08T00:28:34.446Z,18.16
2022-08-08T00:34:17.981Z,18.13
2022-08-08T00:41:07.383Z,18.11
2022-08-08T00:45:20.832Z,18.09
2022-08-08T00:51:06.922Z,18.08
2022-08-08T00:56:45.855Z,18.06
2022-08-08T01:02:12.944Z,18.04
2022-08-08T01:07:55.467Z,18.03
2022-08-08T01:13:38.056Z,18.00
2022-08-08T01:19:52.514Z,17.93
2022-08-08T01:25:40.662Z,17.86
2022-08-08T01:32:02.988Z,17.79
2022-08-08T01:37:17.534Z,17.76
2022-08-08T01:42:36.547Z,17.73
2022-08-08T01:48:27.618Z,17.71
2022-08-08T01:55:17.005Z,17.69
2022-08-08T01:59:38.168Z,17.68
2022-08-08T02:05:06.852Z,17.66
2022-08-08T02:10:44.636Z,17.67
2022-08-08T02:15:57.464Z,17.68
2022-08-08T02:21:08.864Z,17.66
2022-08-08T02:38:09.204Z,17.63
2022-08-08T02:44:44.904Z,17.53
2022-08-08T02:50:17.602Z,17.51
2022-08-08T02:55:57.704Z,17.48
2022-08-08T03:01:50.203Z,17.41
2022-08-08T03:07:58.489Z,17.38
2022-08-08T03:15:59.452Z,17.35
2022-08-08T03:20:03.753Z,17.30
2022-08-08T03:25:18.094Z,17.27
2022-08-08T03:30:21.995Z,17.21
2022-08-08T03:35:26.525Z,17.17
2022-08-08T03:40:39.316Z,17.12
2022-08-08T03:46:06.454Z,17.10
2022-08-08T03:51:08.043Z,17.03
2022-08-08T03:56:31.342Z,16.99
2022-08-08T04:07:02.006Z,17.00
2022-08-08T04:12:07.301Z,16.91
2022-08-08T04:17:22.277Z,16.88
2022-08-08T04:22:42.895Z,16.90
2022-08-08T04:28:02.535Z,16.93
2022-08-08T04:33:09.991Z,16.93
2022-08-08T04:43:46.935Z,17.02
2022-08-08T04:48:52.705Z,16.94
2022-08-08T04:54:37.381Z,16.92
2022-08-08T04:59:24.170Z,16.90
2022-08-08T05:04:32.705Z,16.94
2022-08-08T05:09:36.309Z,16.97
2022-08-08T05:14:44.418Z,17.04
2022-08-08T05:20:09.243Z,17.15
2022-08-08T05:25:10.548Z,17.28
2022-08-08T05:30:28.553Z,17.44
2022-08-08T05:40:57.521Z,17.87
2022-08-08T05:51:22.512Z,18.27
2022-08-08T05:56:27.924Z,18.35
2022-08-08T06:01:55.443Z,18.54
2022-08-08T06:07:02.062Z,18.71
2022-08-08T06:12:06.120Z,18.93
2022-08-08T06:22:32.752Z,19.39
2022-08-08T06:27:46.164Z,19.60
2022-08-08T06:32:52.996Z,19.86
2022-08-08T06:38:12.333Z,20.14
2022-08-08T06:48:42.428Z,20.81
2022-08-08T06:53:50.901Z,20.98
2022-08-08T06:58:58.913Z,21.19
2022-08-08T07:04:38.732Z,21.45
2022-08-08T07:09:45.422Z,21.80
2022-08-08T07:15:05.569Z,22.15
2022-08-08T07:20:20.540Z,22.53
2022-08-08T07:25:32.020Z,22.94
2022-08-08T07:30:35.413Z,23.34
2022-08-08T07:35:44.293Z,23.73
2022-08-08T07:40:48.045Z,24.14
2022-08-08T07:46:18.199Z,24.55
2022-08-08T07:51:23.701Z,24.95
2022-08-08T07:56:35.677Z,25.34
2022-08-08T08:02:37.093Z,25.62
2022-08-08T08:07:10.711Z,25.96
2022-08-08T08:12:35.643Z,26.34
2022-08-08T08:17:47.665Z,26.64
2022-08-08T08:22:57.323Z,26.87
2022-08-08T08:28:00.022Z,27.15
2022-08-08T08:33:05.712Z,27.39
2022-08-08T08:38:19.425Z,27.62
2022-08-08T08:43:26.913Z,27.87
2022-08-08T08:48:32.644Z,28.11
2022-08-08T08:53:56.137Z,28.36
2022-08-08T08:59:05.269Z,28.62
2022-08-08T09:04:31.822Z,28.77
2022-08-08T09:15:00.006Z,29.28
2022-08-08T09:21:56.666Z,29.39
2022-08-08T09:25:35.867Z,29.56
2022-08-08T09:36:19.212Z,29.98
2022-08-08T09:42:14.896Z,30.09
2022-08-08T09:47:25.996Z,30.22
2022-08-08T09:53:00.370Z,30.38
2022-08-08T09:58:06.245Z,30.56
2022-08-08T10:03:14.745Z,30.78
2022-08-08T10:08:32.600Z,30.95
2022-08-08T10:13:38.492Z,31.08
2022-08-08T10:18:45.713Z,31.27
2022-08-08T10:23:59.678Z,31.45
2022-08-08T10:29:05.823Z,31.71
2022-08-08T10:34:19.324Z,31.95
2022-08-08T10:39:31.713Z,32.19
2022-08-08T10:45:01.760Z,32.42
2022-08-08T10:55:41.117Z,32.59
2022-08-08T11:00:52.585Z,32.47
2022-08-08T11:06:12.554Z,32.48
2022-08-08T11:11:59.748Z,32.57
2022-08-08T11:16:47.221Z,32.77
2022-08-08T11:21:55.932Z,32.98
2022-08-08T11:27:19.713Z,32.98
2022-08-08T11:32:29.439Z,32.68
2022-08-08T11:38:35.227Z,32.39
2022-08-08T11:43:03.283Z,32.11
2022-08-08T11:48:06.441Z,31.86
2022-08-08T11:53:13.968Z,31.71
2022-08-08T11:58:22.075Z,31.52
2022-08-08T12:03:30.793Z,31.25
2022-08-08T12:08:35.467Z,30.95
2022-08-08T12:14:04.238Z,30.64
2022-08-08T12:19:12.637Z,30.33
2022-08-08T12:29:41.965Z,29.84
2022-08-08T12:34:52.934Z,29.41
2022-08-08T12:40:02.828Z,29.13
2022-08-08T12:45:58.699Z,28.90
2022-08-08T12:50:46.824Z,28.77
2022-08-08T12:56:17.417Z,28.62
2022-08-08T13:01:36.484Z,28.44
2022-08-08T13:12:28.137Z,28.11
2022-08-08T13:17:54.088Z,27.86
2022-08-08T13:22:47.658Z,27.69
2022-08-08T13:28:00.679Z,27.54
2022-08-08T13:33:04.369Z,27.51
2022-08-08T13:38:13.374Z,27.64
2022-08-08T13:48:45.106Z,27.92
2022-08-08T13:54:08.015Z,27.80
2022-08-08T13:59:11.427Z,27.71
2022-08-08T14:04:22.373Z,27.64
2022-08-08T14:10:04.526Z,27.61
2022-08-08T14:14:54.681Z,27.65
2022-08-08T14:25:27.398Z,27.74
2022-08-08T14:30:35.479Z,27.62
2022-08-08T14:35:39.422Z,27.54
2022-08-08T14:40:49.143Z,27.43
2022-08-08T14:46:02.843Z,27.31
2022-08-08T14:51:07.733Z,27.19
2022-08-08T14:56:16.105Z,27.07
2022-08-08T15:01:23.512Z,26.93
2022-08-08T15:06:26.919Z,26.82
2022-08-08T15:11:43.341Z,26.84
2022-08-08T15:16:49.479Z,26.95
2022-08-08T15:21:52.385Z,27.03
2022-08-08T15:27:01.989Z,27.13
2022-08-08T15:32:20.899Z,27.24
2022-08-08T15:37:27.123Z,27.33
2022-08-08T15:42:35.661Z,27.44
2022-08-08T15:48:05.502Z,27.62
2022-08-08T15:53:04.374Z,27.76
2022-08-08T15:58:12.487Z,27.80
2022-08-08T16:03:15.284Z,27.87
2022-08-08T16:08:20.237Z,27.94
2022-08-08T16:13:34.857Z,28.09
2022-08-08T16:18:56.620Z,28.09
2022-08-08T16:24:02.941Z,28.09
2022-08-08T16:29:15.481Z,27.99
2022-08-08T16:34:20.562Z,27.94
2022-08-08T16:39:59.614Z,27.88
2022-08-08T16:44:54.559Z,27.86
2022-08-08T16:49:58.477Z,27.86
2022-08-08T16:55:52.853Z,27.91
2022-08-08T17:00:32.482Z,27.93
2022-08-08T17:05:44.762Z,27.90
2022-08-08T17:10:57.699Z,27.79
2022-08-08T17:16:07.564Z,27.68
2022-08-08T17:21:18.836Z,27.57
2022-08-08T17:26:26.682Z,27.50
2022-08-08T17:31:44.085Z,27.46
2022-08-08T17:37:00.292Z,27.39
2022-08-08T17:42:06.651Z,27.49
2022-08-08T17:47:16.039Z,27.41
2022-08-08T17:52:26.321Z,27.20
2022-08-08T17:57:35.297Z,26.91
2022-08-08T18:02:52.144Z,26.64
2022-08-08T18:08:01.928Z,26.41
2022-08-08T18:13:07.572Z,26.23
2022-08-08T18:18:28.869Z,26.02
2022-08-08T18:23:34.476Z,25.82
2022-08-08T18:28:53.799Z,25.53
2022-08-08T18:34:11.830Z,25.25
2022-08-08T18:44:53.104Z,24.80
2022-08-08T18:49:59.975Z,24.48
2022-08-08T18:55:09.515Z,24.25
2022-08-08T19:00:21.485Z,24.05
2022-08-08T19:05:30.702Z,23.83
2022-08-08T19:10:37.365Z,23.58
2022-08-08T19:15:51.989Z,23.37
2022-08-08T19:20:59.495Z,23.19
2022-08-08T19:26:29.156Z,22.98
2022-08-08T19:31:31.491Z,22.80
2022-08-08T19:36:37.898Z,22.63
2022-08-08T19:41:41.000Z,22.47
2022-08-08T19:46:49.586Z,22.31
2022-08-08T19:51:52.714Z,22.19
2022-08-08T19:56:55.643Z,22.09
2022-08-08T20:02:04.205Z,22.04
2022-08-08T20:12:31.999Z,21.97
2022-08-08T20:28:07.859Z,21.58
2022-08-08T20:38:18.149Z,21.28
2022-08-08T20:48:44.326Z,21.16
2022-08-08T20:53:59.584Z,20.99
2022-08-08T21:10:01.627Z,20.69
2022-08-08T21:15:07.156Z,20.45
2022-08-08T21:20:10.971Z,20.32
2022-08-08T21:25:19.001Z,20.23
2022-08-08T21:30:24.486Z,20.17
2022-08-08T21:36:16.837Z,20.10
2022-08-08T21:40:57.101Z,20.01
2022-08-08T21:48:04.027Z,19.86
2022-08-08T21:54:17.733Z,19.74
2022-08-08T21:56:51.347Z,19.64
2022-08-08T22:01:55.644Z,19.53
2022-08-08T22:07:00.853Z,19.41
2022-08-08T22:12:12.653Z,19.32
2022-08-08T22:17:19.582Z,19.22
2022-08-08T22:22:24.371Z,19.10
2022-08-08T22:28:00.865Z,19.00
2022-08-08T22:33:00.077Z,18.90
2022-08-08T22:38:02.781Z,18.79
2022-08-08T22:43:10.783Z,18.69
2022-08-08T22:48:14.735Z,18.61
2022-08-08T22:58:42.900Z,18.47
2022-08-08T23:03:53.619Z,18.33
2022-08-08T23:19:35.615Z,18.17
2022-08-08T23:24:41.960Z,18.01
2022-08-08T23:29:55.174Z,17.90
2022-08-08T23:35:08.220Z,17.79
2022-08-08T23:40:16.052Z,17.74
2022-08-08T23:45:19.229Z,17.68
2022-08-08T23:50:47.218Z,17.63
2022-08-08T23:55:59.868Z,17.58
